Time;durP1;ratioP1;P1;durP2;ratioP2;P2;SDS_P1;SDS_P2;PMS_P1;PMS_P2;Temp;Humidity;BMP_temperature;BMP_pressure;BME280_temperature;BME280_humidity;BME280_pressure;Samples;Min_cycle;Max_cycle;Signal;HPM_P1;HPM_P2
2023/07/25 00:01:04;;;;;;;828.13;778.60;;;14.90;99.90;;;;;;5014565;28;20453;-69
2023/07/25 00:03:30;;;;;;;830.50;781.30;;;14.90;99.90;;;;;;5013860;28;20457;-68
2023/07/25 00:05:57;;;;;;;812.00;764.07;;;14.90;99.90;;;;;;5014702;28;20460;-69
2023/07/25 00:08:24;;;;;;;804.00;755.43;;;15.00;99.90;;;;;;5014445;28;20453;-68
2023/07/25 00:10:51;;;;;;;804.33;757.00;;;15.00;99.90;;;;;;5014522;28;20453;-68
2023/07/25 00:13:18;;;;;;;765.07;720.27;;;15.00;99.90;;;;;;5014680;28;20453;-69
2023/07/25 00:15:45;;;;;;;747.33;705.00;;;14.90;99.90;;;;;;5014525;28;20453;-68
2023/07/25 00:18:13;;;;;;;768.70;724.17;;;14.90;99.90;;;;;;5014447;28;20452;-68
2023/07/25 00:20:40;;;;;;;785.40;740.30;;;15.00;99.90;;;;;;5014071;28;20938;-68
2023/07/25 00:23:07;;;;;;;779.47;734.63;;;14.90;99.90;;;;;;5014573;28;20449;-68
2023/07/25 00:25:34;;;;;;;744.63;702.10;;;14.90;99.90;;;;;;5014548;28;20460;-68
2023/07/25 00:28:01;;;;;;;763.13;719.83;;;14.90;99.90;;;;;;5014468;28;20507;-68
2023/07/25 00:30:28;;;;;;;757.17;713.67;;;14.90;99.90;;;;;;5013979;28;20852;-68
2023/07/25 00:32:54;;;;;;;777.60;732.80;;;14.90;99.90;;;;;;5014368;28;20464;-68
2023/07/25 00:35:22;;;;;;;765.40;722.37;;;14.90;99.90;;;;;;5013995;28;20457;-68
2023/07/25 00:37:49;;;;;;;751.57;709.70;;;14.90;99.90;;;;;;5014234;28;20454;-68
2023/07/25 00:40:16;;;;;;;733.93;693.63;;;14.80;99.90;;;;;;5013867;28;20465;-68
2023/07/25 00:42:43;;;;;;;738.47;697.40;;;14.80;99.90;;;;;;5014189;28;20457;-68
2023/07/25 00:45:10;;;;;;;691.90;654.90;;;14.80;99.90;;;;;;5014128;28;20458;-68
2023/07/25 00:47:37;;;;;;;701.87;664.10;;;14.80;99.90;;;;;;5013878;28;20461;-68
2023/07/25 00:50:04;;;;;;;704.30;665.43;;;14.80;99.90;;;;;;5013589;28;20484;-68
2023/07/25 00:52:33;;;;;;;707.67;668.73;;;14.70;99.90;;;;;;5013992;28;20457;-68
2023/07/25 00:55:00;;;;;;;688.13;650.77;;;14.70;99.90;;;;;;5013795;28;20460;-69
2023/07/25 00:57:27;;;;;;;715.00;675.80;;;14.70;99.90;;;;;;5013804;28;20457;-68
2023/07/25 00:59:53;;;;;;;683.00;645.33;;;14.70;99.90;;;;;;5013507;28;20479;-68
2023/07/25 01:02:20;;;;;;;726.30;684.97;;;14.70;99.90;;;;;;5014060;28;20460;-69
2023/07/25 01:04:47;;;;;;;762.00;718.50;;;14.60;99.90;;;;;;5013867;28;20458;-68
2023/07/25 01:07:16;;;;;;;774.77;729.43;;;14.60;99.90;;;;;;5013765;28;20464;-68
2023/07/25 01:09:47;;;;;;;766.97;722.80;;;14.60;99.90;;;;;;5013656;28;20504;-68
2023/07/25 01:12:14;;;;;;;704.83;665.60;;;14.60;99.90;;;;;;5013486;28;20572;-68
2023/07/25 01:14:41;;;;;;;672.00;634.70;;;14.60;99.90;;;;;;5013009;28;20458;-68
2023/07/25 01:17:11;;;;;;;567.90;538.70;;;14.60;99.90;;;;;;5013704;28;20457;-68
2023/07/25 01:19:41;;;;;;;554.23;525.93;;;14.60;99.90;;;;;;5012991;28;20449;-68
2023/07/25 01:22:08;;;;;;;499.27;475.27;;;14.60;99.90;;;;;;5013457;28;20454;-68
2023/07/25 01:24:38;;;;;;;510.80;486.23;;;14.60;99.90;;;;;;5013247;28;20457;-68
2023/07/25 01:27:05;;;;;;;513.30;488.70;;;14.60;99.90;;;;;;5013198;28;20457;-68
2023/07/25 01:29:32;;;;;;;482.70;459.50;;;14.60;99.90;;;;;;5012773;28;20518;-68
2023/07/25 01:31:59;;;;;;;474.23;451.50;;;14.60;99.90;;;;;;5013198;28;20976;-68
2023/07/25 01:34:25;;;;;;;474.37;451.87;;;14.60;99.90;;;;;;5013037;28;20459;-68
2023/07/25 01:36:52;;;;;;;515.27;489.40;;;14.50;99.90;;;;;;5013129;28;20457;-68
2023/07/25 01:39:19;;;;;;;532.00;505.83;;;14.50;99.90;;;;;;5012701;28;20492;-68
2023/07/25 01:41:47;;;;;;;555.33;527.73;;;14.50;99.90;;;;;;5012834;28;20465;-69
2023/07/25 01:44:14;;;;;;;606.97;575.80;;;14.50;99.90;;;;;;5012722;28;20460;-68
2023/07/25 01:46:41;;;;;;;681.23;645.17;;;14.50;99.90;;;;;;5012663;28;20934;-68
2023/07/25 01:49:10;;;;;;;701.50;663.90;;;14.40;99.90;;;;;;5012722;28;20461;-69
2023/07/25 01:51:37;;;;;;;742.20;700.93;;;14.40;99.90;;;;;;5012780;28;20461;-69
2023/07/25 01:54:05;;;;;;;777.70;732.83;;;14.40;99.90;;;;;;5012671;28;20464;-68
2023/07/25 01:56:31;;;;;;;800.73;755.43;;;14.40;99.90;;;;;;5012703;28;20457;-69
2023/07/25 01:59:00;;;;;;;819.53;772.17;;;14.30;99.90;;;;;;5012668;28;20464;-69
2023/07/25 02:01:27;;;;;;;846.40;796.70;;;14.20;99.90;;;;;;5012602;28;20461;-68
2023/07/25 02:03:53;;;;;;;841.73;792.03;;;14.20;99.90;;;;;;5012997;28;20496;-69
2023/07/25 02:06:20;;;;;;;835.50;785.90;;;14.20;99.90;;;;;;5012653;28;20457;-68
2023/07/25 02:08:47;;;;;;;844.33;794.87;;;14.20;99.90;;;;;;5012409;28;20973;-68
2023/07/25 02:11:14;;;;;;;857.57;806.57;;;14.10;99.90;;;;;;5012410;28;20508;-68
2023/07/25 02:13:41;;;;;;;876.43;824.17;;;14.10;99.90;;;;;;5012897;28;20460;-69
2023/07/25 02:16:09;;;;;;;895.77;841.77;;;14.00;99.90;;;;;;5012665;28;20453;-69
2023/07/25 02:18:35;;;;;;;899.17;844.60;;;13.90;99.90;;;;;;5012514;28;20838;-68
2023/07/25 02:21:02;;;;;;;905.07;849.17;;;13.80;99.90;;;;;;5012531;28;20449;-69
2023/07/25 02:23:29;;;;;;;915.13;858.97;;;13.70;99.90;;;;;;5012659;28;20825;-69
2023/07/25 02:25:56;;;;;;;927.47;869.17;;;13.60;99.90;;;;;;5013570;28;20458;-69
2023/07/25 02:28:23;;;;;;;923.27;863.27;;;13.60;99.90;;;;;;5016376;28;20957;-68
2023/07/25 02:30:50;;;;;;;933.03;872.40;;;13.50;99.90;;;;;;5016086;28;20484;-68
2023/07/25 02:33:18;;;;;;;930.70;869.80;;;13.50;99.90;;;;;;5016495;28;20927;-69
2023/07/25 02:35:45;;;;;;;921.73;859.73;;;13.40;99.90;;;;;;5016360;28;20510;-68
2023/07/25 02:38:11;;;;;;;916.10;854.67;;;13.40;99.90;;;;;;5016344;28;20836;-68
2023/07/25 02:40:38;;;;;;;921.20;859.20;;;13.40;99.90;;;;;;5015860;28;20462;-68
2023/07/25 02:43:08;;;;;;;915.23;853.70;;;13.40;99.90;;;;;;5016395;28;20820;-69
2023/07/25 02:45:35;;;;;;;912.63;849.77;;;13.40;99.90;;;;;;5016189;28;20453;-69
2023/07/25 02:48:02;;;;;;;921.17;856.90;;;13.50;99.90;;;;;;5016194;28;20861;-69
2023/07/25 02:50:30;;;;;;;921.87;856.30;;;13.50;99.90;;;;;;5015811;28;20480;-69
2023/07/25 02:52:57;;;;;;;922.33;855.30;;;13.50;99.90;;;;;;5015979;28;20457;-68
2023/07/25 02:55:23;;;;;;;930.97;864.20;;;13.60;99.90;;;;;;5016028;28;20453;-69
2023/07/25 02:57:50;;;;;;;928.43;862.10;;;13.60;99.90;;;;;;5015985;28;20939;-69
2023/07/25 03:00:17;;;;;;;915.80;852.40;;;13.60;99.90;;;;;;5015756;28;20819;-69
2023/07/25 03:02:44;;;;;;;917.30;856.20;;;13.70;99.90;;;;;;5016024;28;20832;-69
2023/07/25 03:05:11;;;;;;;919.63;858.80;;;13.70;99.90;;;;;;5015786;28;20548;-69
2023/07/25 03:07:39;;;;;;;920.50;859.30;;;13.70;99.90;;;;;;5015681;28;20645;-69
2023/07/25 03:10:07;;;;;;;927.40;865.10;;;13.60;99.90;;;;;;5015473;28;20484;-69
2023/07/25 03:12:34;;;;;;;926.73;863.70;;;13.60;99.90;;;;;;5015895;28;20475;-69
2023/07/25 03:15:01;;;;;;;927.43;864.87;;;13.60;99.90;;;;;;5015740;28;20467;-69
2023/07/25 03:17:28;;;;;;;925.17;863.20;;;13.60;99.90;;;;;;5015612;28;20810;-69
2023/07/25 03:19:55;;;;;;;929.07;868.27;;;13.50;99.90;;;;;;5015343;28;20449;-69
2023/07/25 03:22:22;;;;;;;931.40;869.70;;;13.50;99.90;;;;;;5015636;28;20456;-68
2023/07/25 03:24:50;;;;;;;926.57;864.47;;;13.40;99.90;;;;;;5015643;28;20457;-69
2023/07/25 03:27:18;;;;;;;941.97;878.30;;;13.40;99.90;;;;;;5015290;28;20463;-68
2023/07/25 03:29:45;;;;;;;946.17;882.00;;;13.30;99.90;;;;;;5014871;28;20476;-68
2023/07/25 03:32:12;;;;;;;950.70;884.20;;;13.20;99.90;;;;;;5015100;28;20457;-69
2023/07/25 03:34:39;;;;;;;947.40;881.23;;;13.10;99.90;;;;;;5015865;28;20453;-68
2023/07/25 03:37:06;;;;;;;950.07;881.67;;;13.10;99.90;;;;;;5014938;28;20457;-69
2023/07/25 03:39:33;;;;;;;955.63;886.37;;;13.00;99.90;;;;;;5015106;28;20457;-69
2023/07/25 03:42:02;;;;;;;951.43;881.83;;;12.90;99.90;;;;;;5014992;28;20467;-69
2023/07/25 03:44:28;;;;;;;953.33;882.33;;;12.90;99.90;;;;;;5015205;28;20454;-69
2023/07/25 03:46:55;;;;;;;955.77;884.27;;;12.80;99.90;;;;;;5015024;28;20461;-69
2023/07/25 03:49:22;;;;;;;956.93;885.70;;;12.70;99.90;;;;;;5014587;28;20957;-69
2023/07/25 03:51:49;;;;;;;958.10;886.00;;;12.60;99.90;;;;;;5015138;28;20445;-69
2023/07/25 03:54:17;;;;;;;949.17;877.50;;;12.60;99.90;;;;;;5015081;28;20456;-69
2023/07/25 03:56:44;;;;;;;943.00;870.33;;;12.50;99.90;;;;;;5015034;28;20450;-69
2023/07/25 03:59:12;;;;;;;945.93;872.37;;;12.40;99.90;;;;;;5014619;28;20460;-69
2023/07/25 04:01:39;;;;;;;946.10;872.73;;;12.30;99.90;;;;;;5014680;28;20849;-69
2023/07/25 04:04:06;;;;;;;933.23;858.57;;;12.30;99.90;;;;;;5015001;28;20464;-69
2023/07/25 04:06:33;;;;;;;927.13;852.33;;;12.20;99.90;;;;;;5014767;28;20460;-69
2023/07/25 04:09:00;;;;;;;930.60;855.83;;;12.20;99.90;;;;;;5014391;28;20461;-69
2023/07/25 04:11:27;;;;;;;932.00;856.07;;;12.20;99.90;;;;;;5014690;28;20450;-69
2023/07/25 04:13:54;;;;;;;934.40;859.37;;;12.10;99.90;;;;;;5014612;28;20457;-69
2023/07/25 04:16:22;;;;;;;930.90;854.30;;;12.10;99.90;;;;;;5014616;28;20464;-69
2023/07/25 04:18:49;;;;;;;935.97;859.10;;;12.10;99.90;;;;;;5014578;28;20457;-69
2023/07/25 04:21:16;;;;;;;927.57;850.97;;;12.10;99.90;;;;;;5014473;28;20484;-69
2023/07/25 04:23:43;;;;;;;931.93;855.53;;;12.10;99.90;;;;;;5014544;28;20460;-69
2023/07/25 04:26:10;;;;;;;939.83;863.27;;;12.10;99.90;;;;;;5014231;28;20515;-69
2023/07/25 04:28:37;;;;;;;935.40;859.00;;;12.20;99.90;;;;;;5014351;28;20453;-69
2023/07/25 04:31:04;;;;;;;931.30;854.50;;;12.20;99.90;;;;;;5013956;28;20456;-69
2023/07/25 04:33:32;;;;;;;927.07;850.17;;;12.30;99.90;;;;;;5014298;28;20520;-69
2023/07/25 04:35:59;;;;;;;921.50;845.63;;;12.30;99.90;;;;;;5014249;28;20453;-69
2023/07/25 04:38:25;;;;;;;923.83;846.13;;;12.40;99.90;;;;;;5014003;28;20458;-69
2023/07/25 04:40:52;;;;;;;929.87;852.23;;;12.50;99.90;;;;;;5013798;28;20488;-69
2023/07/25 04:43:20;;;;;;;927.20;850.70;;;12.50;99.90;;;;;;5013963;28;20831;-69
2023/07/25 04:45:47;;;;;;;933.30;856.93;;;12.60;99.90;;;;;;5013904;28;20519;-69
2023/07/25 04:48:13;;;;;;;918.57;842.30;;;12.70;99.90;;;;;;5013590;28;21063;-69
2023/07/25 04:50:41;;;;;;;907.30;831.70;;;12.70;99.90;;;;;;5013648;28;20450;-69
2023/07/25 04:53:08;;;;;;;909.23;833.67;;;12.80;99.90;;;;;;5013304;28;20968;-69
2023/07/25 04:55:35;;;;;;;899.60;825.40;;;12.90;99.90;;;;;;5013827;28;20564;-69
2023/07/25 04:58:03;;;;;;;903.20;830.00;;;13.00;99.90;;;;;;5013485;28;20460;-69
2023/07/25 05:00:30;;;;;;;898.17;825.80;;;13.10;99.90;;;;;;5013412;28;20481;-69
2023/07/25 05:02:57;;;;;;;904.53;832.17;;;13.20;99.90;;;;;;5013872;28;20492;-69
2023/07/25 05:05:23;;;;;;;911.93;839.33;;;13.30;99.90;;;;;;5013890;28;20487;-69
2023/07/25 05:07:52;;;;;;;883.60;816.07;;;13.50;99.90;;;;;;5013680;28;20453;-69
2023/07/25 05:10:18;;;;;;;874.27;808.90;;;13.60;99.90;;;;;;5013311;28;20953;-69
2023/07/25 05:12:45;;;;;;;854.63;794.67;;;13.80;99.90;;;;;;5013414;28;20460;-69
2023/07/25 05:15:12;;;;;;;831.43;776.23;;;14.00;99.90;;;;;;5013671;28;20845;-69
2023/07/25 05:17:39;;;;;;;784.00;734.00;;;14.10;99.90;;;;;;5013657;28;20453;-69
2023/07/25 05:20:07;;;;;;;568.93;538.00;;;14.40;99.90;;;;;;5013228;28;20469;-69
2023/07/25 05:22:34;;;;;;;550.50;519.97;;;14.40;99.90;;;;;;5013232;28;20457;-69
2023/07/25 05:25:02;;;;;;;468.67;444.67;;;14.60;99.90;;;;;;5013165;28;20453;-69
2023/07/25 05:27:28;;;;;;;370.83;352.20;;;14.70;99.90;;;;;;5013129;28;20457;-69
2023/07/25 05:29:55;;;;;;;273.70;260.20;;;14.80;99.90;;;;;;5013038;28;20458;-69
2023/07/25 05:32:22;;;;;;;254.53;242.97;;;14.70;99.90;;;;;;5013316;28;20814;-69
2023/07/25 05:34:49;;;;;;;243.57;232.87;;;14.70;99.90;;;;;;5013060;28;20454;-69
2023/07/25 05:37:19;;;;;;;209.97;200.90;;;14.70;99.90;;;;;;5013058;28;20449;-68
2023/07/25 05:39:46;;;;;;;174.80;167.97;;;14.60;99.90;;;;;;5012788;28;20867;-69
2023/07/25 05:42:14;;;;;;;159.57;153.33;;;14.60;99.90;;;;;;5013107;28;20555;-69
2023/07/25 05:44:41;;;;;;;137.47;131.87;;;14.60;99.90;;;;;;5013274;28;20453;-69
2023/07/25 05:47:07;;;;;;;141.50;136.20;;;14.60;99.90;;;;;;5012741;28;20467;-69
2023/07/25 05:49:34;;;;;;;173.77;167.03;;;14.70;99.90;;;;;;5012541;28;20458;-69
2023/07/25 05:52:01;;;;;;;167.27;160.43;;;14.80;99.90;;;;;;5011047;28;20446;-68
2023/07/25 05:54:28;;;;;;;132.47;126.90;;;14.90;99.90;;;;;;5012064;28;20457;-68
2023/07/25 05:56:55;;;;;;;169.73;162.67;;;15.00;99.90;;;;;;5012322;28;20461;-69
2023/07/25 05:59:23;;;;;;;155.77;149.63;;;15.10;99.90;;;;;;5011897;28;20454;-69
2023/07/25 06:01:50;;;;;;;91.90;88.23;;;15.30;99.90;;;;;;5012271;28;20504;-69
2023/07/25 06:04:17;;;;;;;68.83;65.80;;;15.50;99.90;;;;;;5012181;28;20550;-69
2023/07/25 06:06:44;;;;;;;51.43;48.53;;;15.50;99.90;;;;;;5012095;28;20457;-68
2023/07/25 06:09:11;;;;;;;45.60;42.93;;;15.50;99.90;;;;;;5011943;28;20457;-69
2023/07/25 06:11:38;;;;;;;52.43;49.77;;;15.50;99.90;;;;;;5012263;28;20831;-69
2023/07/25 06:14:05;;;;;;;31.40;29.47;;;15.50;99.90;;;;;;5012164;28;20460;-69
2023/07/25 06:16:33;;;;;;;27.60;25.90;;;15.50;99.90;;;;;;5012155;28;20457;-69
2023/07/25 06:19:00;;;;;;;29.43;27.17;;;15.60;99.90;;;;;;5011985;28;20465;-68
2023/07/25 06:21:27;;;;;;;33.70;31.73;;;15.90;99.90;;;;;;5011629;28;20564;-68
2023/07/25 06:23:54;;;;;;;17.67;15.97;;;16.10;99.90;;;;;;5012274;28;20818;-68
2023/07/25 06:26:21;;;;;;;16.13;14.63;;;16.40;99.90;;;;;;5012138;28;20821;-69
2023/07/25 06:28:47;;;;;;;15.83;9.27;;;16.60;99.90;;;;;;5011941;28;20458;-68
2023/07/25 06:31:14;;;;;;;12.20;7.73;;;16.80;99.90;;;;;;5011833;28;20450;-68
2023/07/25 06:33:42;;;;;;;18.20;7.67;;;17.20;99.90;;;;;;5011994;28;20453;-68
2023/07/25 06:36:09;;;;;;;10.37;6.10;;;17.30;99.90;;;;;;5011714;28;20821;-69
2023/07/25 06:38:38;;;;;;;12.57;5.53;;;17.30;99.90;;;;;;5012122;28;20453;-69
2023/07/25 06:41:05;;;;;;;11.77;4.80;;;17.60;99.90;;;;;;5011531;28;20477;-69
2023/07/25 06:43:32;;;;;;;11.07;5.90;;;17.40;99.90;;;;;;5012176;28;20479;-69
2023/07/25 06:46:00;;;;;;;12.60;6.03;;;17.30;99.90;;;;;;5012246;28;20652;-68
2023/07/25 06:48:27;;;;;;;14.87;6.23;;;17.40;99.90;;;;;;5012394;28;20793;-69
2023/07/25 06:50:55;;;;;;;13.20;6.93;;;17.60;99.90;;;;;;5011533;28;20489;-69
2023/07/25 06:53:22;;;;;;;13.80;6.60;;;17.60;99.90;;;;;;5012036;28;20457;-69
2023/07/25 06:55:49;;;;;;;14.57;6.90;;;18.00;99.90;;;;;;5011813;28;20677;-69
2023/07/25 06:58:16;;;;;;;13.70;6.50;;;17.80;99.90;;;;;;5011608;28;20509;-70
2023/07/25 07:00:43;;;;;;;16.10;7.37;;;17.40;99.90;;;;;;5011621;28;20500;-67
2023/07/25 07:03:10;;;;;;;12.93;5.40;;;17.70;99.90;;;;;;5011571;28;20458;-69
2023/07/25 07:05:36;;;;;;;18.93;6.13;;;18.00;99.50;;;;;;5011081;28;20475;-68
2023/07/25 07:08:07;;;;;;;20.40;7.33;;;18.40;97.80;;;;;;5011648;28;20453;-68
2023/07/25 07:10:34;;;;;;;15.83;6.03;;;18.70;94.60;;;;;;5011602;28;20457;-67
2023/07/25 07:13:01;;;;;;;10.20;5.53;;;19.20;94.80;;;;;;5014139;28;20461;-67
2023/07/25 07:15:28;;;;;;;11.30;4.50;;;19.40;94.90;;;;;;5015652;28;20449;-68
2023/07/25 07:17:55;;;;;;;11.57;3.90;;;19.30;91.40;;;;;;5015404;28;20453;-68
2023/07/25 07:20:22;;;;;;;15.00;5.13;;;19.90;89.80;;;;;;5015252;28;20828;-68
2023/07/25 07:22:49;;;;;;;11.83;3.87;;;20.00;91.70;;;;;;5015127;28;20485;-68
2023/07/25 07:25:17;;;;;;;9.30;3.20;;;19.70;85.80;;;;;;5015179;28;20457;-67
2023/07/25 07:27:44;;;;;;;11.20;2.90;;;19.20;85.30;;;;;;5015183;28;20457;-68
2023/07/25 07:30:11;;;;;;;7.27;2.63;;;18.80;85.00;;;;;;5014675;28;20464;-68
2023/07/25 07:32:37;;;;;;;6.80;2.90;;;18.60;87.60;;;;;;5015115;28;20449;-68
2023/07/25 07:35:05;;;;;;;6.97;2.37;;;18.50;91.10;;;;;;5015159;28;20830;-68
2023/07/25 07:37:32;;;;;;;6.60;2.23;;;18.40;90.70;;;;;;5014983;28;20454;-68
2023/07/25 07:39:58;;;;;;;7.57;2.73;;;18.40;91.00;;;;;;5014294;28;20453;-68
2023/07/25 07:42:26;;;;;;;8.20;3.10;;;18.30;91.00;;;;;;5015116;28;21015;-67
2023/07/25 07:44:53;;;;;;;8.77;2.80;;;18.20;90.90;;;;;;5014206;28;20453;-68
2023/07/25 07:47:20;;;;;;;9.80;2.40;;;18.00;86.50;;;;;;5015106;28;20460;-69
2023/07/25 07:49:47;;;;;;;8.20;2.50;;;18.00;87.50;;;;;;5014822;28;20453;-67
2023/07/25 07:52:14;;;;;;;9.47;2.70;;;17.90;89.90;;;;;;5014965;28;20453;-68
2023/07/25 07:54:40;;;;;;;10.03;3.40;;;18.10;90.90;;;;;;5015044;28;20461;-67
2023/07/25 07:57:07;;;;;;;9.33;3.27;;;18.30;88.40;;;;;;5013777;28;20468;-67
2023/07/25 07:59:35;;;;;;;6.10;2.50;;;18.60;84.80;;;;;;5014585;28;20457;-68
2023/07/25 08:02:02;;;;;;;8.27;2.60;;;18.60;84.80;;;;;;5014873;28;20843;-67
2023/07/25 08:04:29;;;;;;;9.70;2.30;;;18.50;84.70;;;;;;5014903;28;20457;-67
2023/07/25 08:06:56;;;;;;;10.17;2.20;;;18.20;84.50;;;;;;5014786;28;20457;-68
2023/07/25 08:09:23;;;;;;;7.07;1.80;;;18.50;84.80;;;;;;5014606;28;20459;-67
2023/07/25 08:11:49;;;;;;;6.80;2.27;;;18.60;84.80;;;;;;5014473;28;20456;-68
2023/07/25 08:14:16;;;;;;;8.50;2.47;;;18.40;84.60;;;;;;5014832;28;20479;-67
2023/07/25 08:16:44;;;;;;;11.63;2.30;;;18.30;84.50;;;;;;5014672;28;20454;-68
2023/07/25 08:19:11;;;;;;;8.43;1.93;;;18.40;84.70;;;;;;5014339;28;20453;-68
2023/07/25 08:21:38;;;;;;;7.03;1.97;;;18.20;84.40;;;;;;5014321;28;20473;-68
2023/07/25 08:24:05;;;;;;;9.23;2.27;;;18.50;84.70;;;;;;5013387;28;20461;-68
2023/07/25 08:26:32;;;;;;;7.10;2.80;;;18.50;78.40;;;;;;5014218;28;20457;-68
2023/07/25 08:28:59;;;;;;;8.63;1.80;;;18.80;77.20;;;;;;5014307;28;20454;-68
2023/07/25 08:31:26;;;;;;;8.50;2.50;;;18.90;77.20;;;;;;5014299;28;20450;-68
2023/07/25 08:33:55;;;;;;;10.40;2.43;;;19.10;77.20;;;;;;5014318;28;20954;-67
2023/07/25 08:36:22;;;;;;;7.23;2.03;;;19.50;69.70;;;;;;5014117;28;20508;-68
2023/07/25 08:38:49;;;;;;;6.20;1.90;;;19.70;69.90;;;;;;5013940;28;20836;-68
2023/07/25 08:41:18;;;;;;;9.23;2.03;;;19.80;68.90;;;;;;5013921;28;20988;-68
2023/07/25 08:43:45;;;;;;;6.33;1.93;;;20.20;70.30;;;;;;5014133;28;20457;-68
2023/07/25 08:46:13;;;;;;;6.20;2.13;;;19.80;67.40;;;;;;5014175;28;20882;-68
2023/07/25 08:48:42;;;;;;;7.30;1.70;;;19.70;69.80;;;;;;5013819;28;20497;-68
2023/07/25 08:51:20;;;;;;;8.53;2.37;;;19.80;69.90;;;;;;5013810;28;20458;-68
2023/07/25 08:53:54;;;;;;;8.60;1.93;;;19.60;69.70;;;;;;5013817;28;20460;-68
2023/07/25 08:56:22;;;;;;;10.93;2.00;;;19.60;69.70;;;;;;5013862;28;20508;-68
2023/07/25 08:58:51;;;;;;;10.47;2.30;;;19.60;69.30;;;;;;5013539;28;20517;-68
2023/07/25 09:01:19;;;;;;;12.60;2.20;;;19.50;69.70;;;;;;5013647;28;20464;-68
2023/07/25 09:03:48;;;;;;;7.67;2.20;;;19.50;69.60;;;;;;5013751;28;20453;-67
2023/07/25 09:06:16;;;;;;;5.97;1.90;;;19.60;69.70;;;;;;5013904;28;20454;-67
2023/07/25 09:08:43;;;;;;;6.10;1.93;;;19.70;63.60;;;;;;5013490;28;20457;-68
2023/07/25 09:11:10;;;;;;;6.17;2.00;;;19.90;64.50;;;;;;5013701;28;20450;-67
2023/07/25 09:13:38;;;;;;;8.37;1.70;;;19.80;61.60;;;;;;5013561;28;20807;-67
2023/07/25 09:16:05;;;;;;;9.30;2.37;;;19.80;61.60;;;;;;5013449;28;20464;-67
2023/07/25 09:18:32;;;;;;;8.70;2.20;;;19.70;61.60;;;;;;5013455;28;20489;-67
2023/07/25 09:20:59;;;;;;;13.90;2.27;;;19.70;69.40;;;;;;5013217;28;20930;-67
2023/07/25 09:23:27;;;;;;;7.87;1.90;;;19.60;61.50;;;;;;5013401;28;20488;-67
2023/07/25 09:26:05;;;;;;;7.80;1.90;;;19.50;61.40;;;;;;5013265;28;20453;-68
2023/07/25 09:28:32;;;;;;;5.90;1.60;;;19.20;55.20;;;;;;5013134;28;20872;-68
2023/07/25 09:31:03;;;;;;;5.67;1.37;;;19.30;57.40;;;;;;5012884;28;20515;-67
2023/07/25 09:33:30;;;;;;;7.97;1.63;;;19.10;52.40;;;;;;5013228;28;20938;-68
2023/07/25 09:35:59;;;;;;;9.53;2.27;;;19.30;57.50;;;;;;5012991;28;20457;-68
2023/07/25 09:38:27;;;;;;;6.20;1.60;;;19.50;54.40;;;;;;5012993;28;20492;-68
2023/07/25 09:40:55;;;;;;;6.37;1.77;;;19.90;54.00;;;;;;5012918;28;20544;-68
2023/07/25 09:43:23;;;;;;;5.17;1.70;;;19.90;50.30;;;;;;5012831;28;20481;-68
2023/07/25 09:45:50;;;;;;;7.00;2.13;;;20.10;52.90;;;;;;5013115;28;20461;-67
2023/07/25 09:48:18;;;;;;;6.70;1.90;;;19.80;49.70;;;;;;5013056;28;20472;-67
2023/07/25 09:50:45;;;;;;;6.00;1.60;;;19.80;53.00;;;;;;5012807;28;20459;-68
2023/07/25 09:53:13;;;;;;;8.60;1.73;;;19.70;48.00;;;;;;5012959;28;20449;-68
2023/07/25 09:55:42;;;;;;;6.20;1.80;;;19.90;45.10;;;;;;5012880;28;20454;-67
2023/07/25 09:58:09;;;;;;;10.03;2.10;;;20.20;44.50;;;;;;5012652;28;20457;-68
2023/07/25 10:00:35;;;;;;;6.30;2.40;;;20.10;44.00;;;;;;5012902;28;20806;-67
2023/07/25 10:03:02;;;;;;;6.40;1.87;;;20.10;44.40;;;;;;5012578;28;20477;-67
2023/07/25 10:05:29;;;;;;;5.07;1.70;;;20.20;44.50;;;;;;5012800;28;20476;-68
2023/07/25 10:07:57;;;;;;;6.63;1.80;;;20.30;44.60;;;;;;5012505;28;20465;-68
2023/07/25 10:10:25;;;;;;;7.53;2.10;;;20.70;36.00;;;;;;5012322;28;20457;-67
2023/07/25 10:12:54;;;;;;;6.17;1.60;;;21.30;36.50;;;;;;5012565;28;20960;-67
2023/07/25 10:15:21;;;;;;;4.97;1.40;;;21.00;32.50;;;;;;5012597;28;20947;-67
2023/07/25 10:17:48;;;;;;;5.90;1.30;;;21.70;28.30;;;;;;5012655;28;20458;-67
2023/07/25 10:20:21;;;;;;;7.63;1.70;;;22.50;28.80;;;;;;5012372;28;20477;-68
2023/07/25 10:22:48;;;;;;;6.63;1.73;;;22.10;28.50;;;;;;5012527;28;20488;-67
2023/07/25 10:25:19;;;;;;;4.80;1.17;;;22.00;21.20;;;;;;5012197;28;20460;-67
2023/07/25 10:27:46;;;;;;;4.97;1.40;;;22.50;21.50;;;;;;5012325;28;20461;-67
2023/07/25 10:30:25;;;;;;;7.83;1.93;;;23.00;21.90;;;;;;4994684;28;20454;-67
2023/07/25 10:32:54;;;;;;;5.50;1.57;;;23.50;17.10;;;;;;4992489;28;20513;-67
2023/07/25 10:35:40;;;;;;;6.80;1.40;;;23.20;14.50;;;;;;4992394;28;20486;-67
2023/07/25 10:38:09;;;;;;;6.10;1.30;;;23.30;14.60;;;;;;4992553;28;20454;-67
2023/07/25 10:40:52;;;;;;;4.57;1.30;;;23.70;7.20;;;;;;4992033;28;20474;-67
2023/07/25 10:43:20;;;;;;;7.43;1.30;;;23.30;6.90;;;;;;4992428;28;20482;-67
2023/07/25 10:45:53;;;;;;;4.90;1.30;;;22.80;6.60;;;;;;4992294;28;20465;-68
2023/07/25 10:48:34;;;;;;;8.83;1.57;;;22.30;6.30;;;;;;4995398;28;20451;-67
2023/07/25 10:51:06;;;;;;;6.60;1.50;;;22.80;6.60;;;;;;4996231;28;20477;-67
2023/07/25 10:53:34;;;;;;;7.80;1.60;;;23.90;11.20;;;;;;4996258;28;20457;-68
2023/07/25 10:56:17;;;;;;;5.80;1.37;;;23.50;7.10;;;;;;4996039;28;20449;-68
2023/07/25 10:59:02;;;;;;;6.90;1.80;;;23.70;5.10;;;;;;4995992;28;20829;-68
2023/07/25 11:01:39;;;;;;;12.40;2.10;;;24.80;1.00;;;;;;4985385;28;20462;-68
2023/07/25 11:04:26;;;;;;;6.50;1.70;;;24.90;1.00;;;;;;4996245;28;21057;-68
2023/07/25 11:06:53;;;;;;;9.73;2.10;;;23.50;1.80;;;;;;4995704;28;20454;-68
2023/07/25 11:09:21;;;;;;;6.33;1.37;;;24.10;7.50;;;;;;4995804;28;20458;-68
2023/07/25 11:11:51;;;;;;;4.90;1.50;;;24.40;5.20;;;;;;4996044;28;20536;-68
2023/07/25 11:14:19;;;;;;;6.47;2.20;;;24.20;1.00;;;;;;4996574;28;20803;-68
2023/07/25 11:16:50;;;;;;;5.30;1.30;;;23.20;1.00;;;;;;4996164;28;20549;-67
2023/07/25 11:19:18;;;;;;;6.47;1.20;;;24.00;1.90;;;;;;4995694;28;20834;-68
2023/07/25 11:21:46;;;;;;;7.60;1.70;;;24.10;1.00;;;;;;4996265;28;20552;-67
2023/07/25 11:24:13;;;;;;;5.60;1.60;;;23.70;4.20;;;;;;4996123;28;20482;-67
2023/07/25 11:26:43;;;;;;;4.97;1.90;;;22.60;6.40;;;;;;4996020;28;20454;-68
2023/07/25 11:29:12;;;;;;;5.70;1.93;;;21.90;5.90;;;;;;4995731;28;20461;-67
2023/07/25 11:31:47;;;;;;;7.37;1.97;;;21.20;9.40;;;;;;4995841;28;20454;-68
2023/07/25 11:34:16;;;;;;;8.63;1.40;;;20.90;12.90;;;;;;4996139;28;20477;-67
2023/07/25 11:36:43;;;;;;;5.10;1.70;;;20.90;24.90;;;;;;4996022;28;20804;-67
2023/07/25 11:39:11;;;;;;;8.40;1.90;;;20.60;27.50;;;;;;4995596;28;20478;-67
2023/07/25 11:41:40;;;;;;;6.27;1.87;;;20.60;26.00;;;;;;4995645;28;20980;-68
2023/07/25 11:44:10;;;;;;;8.53;2.27;;;20.40;25.90;;;;;;4995539;28;20481;-68
2023/07/25 11:46:39;;;;;;;5.70;1.23;;;21.10;27.80;;;;;;4995473;28;20520;-68
2023/07/25 11:49:09;;;;;;;8.57;2.33;;;21.50;13.30;;;;;;4995300;28;20490;-68
2023/07/25 11:51:37;;;;;;;7.20;1.80;;;21.60;5.70;;;;;;4995616;28;20461;-68
2023/07/25 11:54:06;;;;;;;4.93;1.33;;;21.50;9.50;;;;;;4995465;28;20465;-68
2023/07/25 11:56:33;;;;;;;7.53;2.30;;;21.50;6.60;;;;;;4995470;28;21017;-67
2023/07/25 11:59:01;;;;;;;7.20;2.00;;;21.80;9.70;;;;;;4994791;28;20510;-68
2023/07/25 12:01:29;;;;;;;6.50;1.60;;;21.40;13.20;;;;;;4995546;28;21021;-67
2023/07/25 12:03:56;;;;;;;11.40;2.30;;;20.80;25.40;;;;;;4993842;28;20492;-68
2023/07/25 12:06:31;;;;;;;7.07;2.00;;;20.30;31.50;;;;;;4994964;28;20508;-68
2023/07/25 12:08:59;;;;;;;13.33;2.50;;;19.60;34.90;;;;;;5006786;28;20460;-67
2023/07/25 12:11:29;;;;;;;15.97;1.70;;;19.20;34.50;;;;;;5014376;28;20453;-67
2023/07/25 12:13:57;;;;;;;5.33;1.60;;;19.00;34.30;;;;;;5014447;28;20477;-67
2023/07/25 12:16:30;;;;;;;6.60;2.83;;;18.90;34.60;;;;;;5014891;28;20548;-68
2023/07/25 12:18:58;;;;;;;5.80;2.20;;;18.80;41.00;;;;;;5014465;28;20810;-68
2023/07/25 12:21:27;;;;;;;8.70;2.00;;;18.70;43.20;;;;;;5014472;28;20468;-68
2023/07/25 12:24:06;;;;;;;7.50;1.47;;;18.80;44.80;;;;;;5013843;28;20505;-67
2023/07/25 12:26:44;;;;;;;7.87;1.80;;;18.60;43.10;;;;;;5014280;28;20530;-68
2023/07/25 12:29:14;;;;;;;7.67;2.63;;;18.50;43.00;;;;;;5014301;28;20508;-68